Time;durP1;ratioP1;P1;durP2;ratioP2;P2;SDS_P1;SDS_P2;PMS_P1;PMS_P2;Temp;Humidity;BMP_temperature;BMP_pressure;BME280_temperature;BME280_humidity;BME280_pressure;Samples;Min_cycle;Max_cycle;Signal;HPM_P1;HPM_P2
2024/02/07 00:02:10;;;;;;;;;;;;;;;;;;5009161;28;19925;-66
2024/02/07 00:04:36;;;;;;;;;;;;;;;;;;5005137;28;19984;-66
2024/02/07 00:07:02;;;;;;;;;;;;;;;;;;5009983;28;20357;-66
2024/02/07 00:09:28;;;;;;;;;;;;;;;;;;5012756;28;19928;-67
2024/02/07 00:11:53;;;;;;;;;;;;;;;;;;5007410;28;20334;-67
2024/02/07 00:14:19;;;;;;;;;;;;;;;;;;4989930;28;19925;-67
2024/02/07 00:16:45;;;;;;;;;;;;;;;;;;5011284;28;19925;-67
2024/02/07 00:19:11;;;;;;;;;;;;;;;;;;5008285;28;19921;-67
2024/02/07 00:21:37;;;;;;;;;;;;;;;;;;5007238;28;19922;-67
2024/02/07 00:24:03;;;;;;;;;;;;;;;;;;5009300;28;19929;-67
2024/02/07 00:26:29;;;;;;;;;;;;;;;;;;5008747;28;19996;-67
2024/02/07 00:28:55;;;;;;;;;;;;;;;;;;5004301;28;19976;-67
2024/02/07 00:31:21;;;;;;;;;;;;;;;;;;5021375;28;19921;-67
2024/02/07 00:33:47;;;;;;;;;;;;;;;;;;5012160;28;19929;-67
2024/02/07 00:36:13;;;;;;;;;;;;;;;;;;5010698;28;19921;-67
2024/02/07 00:38:39;;;;;;;;;;;;;;;;;;5009728;28;19969;-67
2024/02/07 00:41:05;;;;;;;;;;;;;;;;;;5006488;28;19921;-67
2024/02/07 00:43:30;;;;;;;;;;;;;;;;;;5012093;28;19961;-67
2024/02/07 00:45:56;;;;;;;;;;;;;;;;;;5005332;28;20295;-67
2024/02/07 00:48:22;;;;;;;;;;;;;;;;;;5003689;28;19921;-67
2024/02/07 00:50:48;;;;;;;;;;;;;;;;;;5009489;28;19925;-67
2024/02/07 00:53:14;;;;;;;;;;;;;;;;;;5007442;28;20430;-67
2024/02/07 00:55:40;;;;;;;;;;;;;;;;;;5000332;28;19998;-67
2024/02/07 00:58:06;;;;;;;;;;;;;;;;;;5022420;28;20068;-67
2024/02/07 01:00:32;;;;;;;;;;;;;;;;;;5009812;28;20008;-67
2024/02/07 01:02:58;;;;;;;;;;;;;;;;;;5009236;28;20481;-67
2024/02/07 01:05:24;;;;;;;;;;;;;;;;;;5009986;28;19975;-67
2024/02/07 01:07:50;;;;;;;;;;;;;;;;;;5001039;28;19965;-67
2024/02/07 01:10:16;;;;;;;;;;;;;;;;;;5005245;28;19929;-67
2024/02/07 01:12:42;;;;;;;;;;;;;;;;;;5011306;28;19929;-66
2024/02/07 01:15:08;;;;;;;;;;;;;;;;;;5005944;28;19926;-67
2024/02/07 01:17:34;;;;;;;;;;;;;;;;;;5026936;28;19967;-66
2024/02/07 01:20:00;;;;;;;;;;;;;;;;;;5009233;28;19930;-66
2024/02/07 01:22:26;;;;;;;;;;;;;;;;;;5009070;28;19925;-66
2024/02/07 01:24:51;;;;;;;;;;;;;;;;;;5009643;28;19961;-67
2024/02/07 01:27:18;;;;;;;;;;;;;;;;;;5010263;28;20012;-66
2024/02/07 01:29:43;;;;;;;;;;;;;;;;;;5006319;28;19960;-66
2024/02/07 01:32:09;;;;;;;;;;;;;;;;;;5009534;28;20015;-67
2024/02/07 01:34:35;;;;;;;;;;;;;;;;;;5007472;28;20824;-66
2024/02/07 01:37:01;;;;;;;;;;;;;;;;;;5010769;28;19972;-66
2024/02/07 01:39:27;;;;;;;;;;;;;;;;;;5006774;28;19959;-66
2024/02/07 01:42:00;;;;;;;;;;;;;;;;;;5008408;28;20295;-66
2024/02/07 01:44:28;;;;;;;;;;;;;;;;;;4989302;28;19929;-69
2024/02/07 01:47:12;;;;;;;;;;;;;;;;;;5004664;28;21064;-68
2024/02/07 01:49:38;;;;;;;;;;;;;;;;;;5005832;28;19925;-66
2024/02/07 01:52:04;;;;;;;;;;;;;;;;;;5009945;28;20404;-66
2024/02/07 01:54:31;;;;;;;;;;;;;;;;;;5009011;28;19921;-66
2024/02/07 01:56:57;;;;;;;;;;;;;;;;;;5000083;28;19929;-66
2024/02/07 01:59:23;;;;;;;;;;;;;;;;;;5009358;28;19921;-66
2024/02/07 02:01:49;;;;;;;;;;;;;;;;;;5003512;28;19926;-66
2024/02/07 02:04:15;;;;;;;;;;;;;;;;;;4999967;28;19932;-66
2024/02/07 02:06:41;;;;;;;;;;;;;;;;;;5008887;28;20417;-66
2024/02/07 02:09:08;;;;;;;;;;;;;;;;;;5008640;28;19922;-66
2024/02/07 02:11:34;;;;;;;;;;;;;;;;;;5023563;28;19928;-66
2024/02/07 02:14:00;;;;;;;;;;;;;;;;;;4994214;28;19922;-66
2024/02/07 02:16:26;;;;;;;;;;;;;;;;;;5011546;28;19936;-67
2024/02/07 02:18:53;;;;;;;;;;;;;;;;;;5014765;28;19925;-66
2024/02/07 02:21:19;;;;;;;;;;;;;;;;;;5015044;28;20015;-67
2024/02/07 02:23:45;;;;;;;;;;;;;;;;;;5015155;28;19972;-67
2024/02/07 02:26:11;;;;;;;;;;;;;;;;;;5013118;28;20414;-67
2024/02/07 02:28:37;;;;;;;;;;;;;;;;;;5013690;28;19960;-67
2024/02/07 02:31:03;;;;;;;;;;;;;;;;;;5015073;28;19996;-67
2024/02/07 02:33:29;;;;;;;;;;;;;;;;;;5014604;28;20395;-67
2024/02/07 02:35:56;;;;;;;;;;;;;;;;;;5015135;28;19925;-67
2024/02/07 02:38:23;;;;;;;;;;;;;;;;;;5014470;28;19925;-66
2024/02/07 02:40:50;;;;;;;;;;;;;;;;;;5026028;28;19922;-66
2024/02/07 02:43:16;;;;;;;;;;;;;;;;;;4996632;28;20023;-66
2024/02/07 02:45:42;;;;;;;;;;;;;;;;;;5014850;28;19965;-67
2024/02/07 02:48:08;;;;;;;;;;;;;;;;;;5012865;28;19922;-67
2024/02/07 02:50:34;;;;;;;;;;;;;;;;;;5014239;28;20413;-66
2024/02/07 02:53:00;;;;;;;;;;;;;;;;;;5002751;28;19926;-66
2024/02/07 02:55:26;;;;;;;;;;;;;;;;;;5011838;28;19932;-67
2024/02/07 02:57:58;;;;;;;;;;;;;;;;;;5014549;28;19937;-65
2024/02/07 03:00:26;;;;;;;;;;;;;;;;;;5012757;28;19925;-66
2024/02/07 03:02:55;;;;;;;;;;;;;;;;;;5027030;28;19929;-66
2024/02/07 03:08:16;;;;;;;;;;;;;;;;;;5013896;28;19925;-66
2024/02/07 03:10:41;;;;;;;;;;;;;;;;;;5006006;28;19926;-66
2024/02/07 03:13:08;;;;;;;;;;;;;;;;;;5012649;28;20397;-66
2024/02/07 03:15:34;;;;;;;;;;;;;;;;;;5013501;28;19925;-66
2024/02/07 03:18:00;;;;;;;;;;;;;;;;;;5013651;28;19928;-66
2024/02/07 03:20:27;;;;;;;;;;;;;;;;;;5013989;28;19925;-67
2024/02/07 03:22:54;;;;;;;;;;;;;;;;;;5012071;28;19933;-66
2024/02/07 03:25:20;;;;;;;;;;;;;;;;;;5013754;28;19922;-66
2024/02/07 03:27:46;;;;;;;;;;;;;;;;;;5011783;28;19925;-66
2024/02/07 03:30:12;;;;;;;;;;;;;;;;;;5010049;28;19921;-66
2024/02/07 03:32:38;;;;;;;;;;;;;;;;;;5011758;28;19929;-67
2024/02/07 03:35:04;;;;;;;;;;;;;;;;;;5013030;28;20276;-67
2024/02/07 03:37:30;;;;;;;;;;;;;;;;;;5012112;28;19929;-67
2024/02/07 03:39:56;;;;;;;;;;;;;;;;;;4999156;28;19921;-67
2024/02/07 03:42:22;;;;;;;;;;;;;;;;;;5008136;28;19980;-67
2024/02/07 03:44:47;;;;;;;;;;;;;;;;;;5004424;28;20000;-67
2024/02/07 03:47:14;;;;;;;;;;;;;;;;;;5003382;28;20877;-66
2024/02/07 03:49:40;;;;;;;;;;;;;;;;;;5001256;28;19921;-66
2024/02/07 03:52:07;;;;;;;;;;;;;;;;;;4999659;28;19926;-67
2024/02/07 03:54:33;;;;;;;;;;;;;;;;;;5002432;28;19921;-67
2024/02/07 03:56:59;;;;;;;;;;;;;;;;;;5002195;28;19941;-67
2024/02/07 03:59:25;;;;;;;;;;;;;;;;;;5008941;28;19941;-67
2024/02/07 04:01:51;;;;;;;;;;;;;;;;;;5005811;28;19922;-67
2024/02/07 04:04:20;;;;;;;;;;;;;;;;;;5012412;28;19929;-67
2024/02/07 04:06:46;;;;;;;;;;;;;;;;;;5011377;28;19949;-67
2024/02/07 04:09:12;;;;;;;;;;;;;;;;;;5021934;22;19921;-66
2024/02/07 05:16:48;;;;;;;;;;;;;;;;;;5009147;28;19926;-67
2024/02/07 05:19:14;;;;;;;;;;;;;;;;;;5007673;28;20016;-67
2024/02/07 05:21:40;;;;;;;;;;;;;;;;;;5011591;28;20016;-67
2024/02/07 05:24:10;;;;;;;;;;;;;;;;;;5009902;28;20375;-67
2024/02/07 05:26:36;;;;;;;;;;;;;;;;;;5015273;28;19938;-66
2024/02/07 05:29:02;;;;;;;;;;;;;;;;;;5010040;28;20302;-66
2024/02/07 05:31:29;;;;;;;;;;;;;;;;;;4996911;28;20430;-66
2024/02/07 05:33:55;;;;;;;;;;;;;;;;;;5010698;28;20004;-66
2024/02/07 05:36:21;;;;;;;;;;;;;;;;;;5013423;28;20008;-66
2024/02/07 05:38:47;;;;;;;;;;;;;;;;;;5012119;28;20356;-66
2024/02/07 05:41:13;;;;;;;;;;;;;;;;;;5012248;28;19948;-67
2024/02/07 05:43:39;;;;;;;;;;;;;;;;;;5009078;28;20441;-67
2024/02/07 05:46:05;;;;;;;;;;;;;;;;;;5011774;28;19944;-67
2024/02/07 05:48:31;;;;;;;;;;;;;;;;;;4989987;28;19925;-67
2024/02/07 05:50:56;;;;;;;;;;;;;;;;;;5010445;28;20008;-67
2024/02/07 05:53:22;;;;;;;;;;;;;;;;;;5016467;28;19925;-67
2024/02/07 05:55:48;;;;;;;;;;;;;;;;;;5016562;28;20551;-67
2024/02/07 05:58:14;;;;;;;;;;;;;;;;;;4997369;28;20362;-67
2024/02/07 06:00:40;;;;;;;;;;;;;;;;;;5000183;28;20028;-67
2024/02/07 06:03:08;;;;;;;;;;;;;;;;;;5005496;28;19925;-67
2024/02/07 06:05:33;;;;;;;;;;;;;;;;;;4998472;28;19922;-67
2024/02/07 06:07:59;;;;;;;;;;;;;;;;;;4978396;28;20048;-67
2024/02/07 06:10:25;;;;;;;;;;;;;;;;;;5018160;28;19925;-67
2024/02/07 06:12:51;;;;;;;;;;;;;;;;;;5014954;28;20278;-67
2024/02/07 06:15:17;;;;;;;;;;;;;;;;;;5033313;28;19933;-67
2024/02/07 06:17:43;;;;;;;;;;;;;;;;;;5029568;28;19929;-67
2024/02/07 06:20:09;;;;;;;;;;;;;;;;;;5033749;28;19931;-67
2024/02/07 06:22:36;;;;;;;;;;;;;;;;;;5033858;28;19948;-67
2024/02/07 06:25:03;;;;;;;;;;;;;;;;;;5032666;28;19925;-65
2024/02/07 06:27:29;;;;;;;;;;;;;;;;;;5032753;28;20441;-66
2024/02/07 06:29:55;;;;;;;;;;;;;;;;;;5035017;28;20016;-66
2024/02/07 06:32:21;;;;;;;;;;;;;;;;;;5034687;28;20007;-67
2024/02/07 06:34:47;;;;;;;;;;;;;;;;;;5017457;28;20012;-67
2024/02/07 06:37:13;;;;;;;;;;;;;;;;;;5021643;28;19976;-67
2024/02/07 06:39:39;;;;;;;;;;;;;;;;;;5013921;28;20582;-66
2024/02/07 06:42:05;;;;;;;;;;;;;;;;;;5021838;28;19921;-66
2024/02/07 06:44:31;;;;;;;;;;;;;;;;;;5030441;28;19921;-66
2024/02/07 06:46:56;;;;;;;;;;;;;;;;;;5033916;28;20321;-66
2024/02/07 06:49:22;;;;;;;;;;;;;;;;;;5022677;28;19921;-66
2024/02/07 06:51:48;;;;;;;;;;;;;;;;;;5019510;28;19987;-66
2024/02/07 06:54:14;;;;;;;;;;;;;;;;;;5021554;28;20295;-66
2024/02/07 06:56:40;;;;;;;;;;;;;;;;;;5020362;28;19972;-67
2024/02/07 06:59:11;;;;;;;;;;;;;;;;;;5019102;28;19968;-66
2024/02/07 07:01:36;;;;;;;;;;;;;;;;;;5016859;28;19936;-66
2024/02/07 07:04:04;;;;;;;;;;;;;;;;;;5013917;28;20229;-67
2024/02/07 07:06:30;;;;;;;;;;;;;;;;;;5031207;28;20363;-67
2024/02/07 07:08:56;;;;;;;;;;;;;;;;;;5033882;28;19928;-67
2024/02/07 07:11:22;;;;;;;;;;;;;;;;;;5033418;28;19925;-67
2024/02/07 07:13:48;;;;;;;;;;;;;;;;;;5033752;28;19932;-66
2024/02/07 07:16:14;;;;;;;;;;;;;;;;;;5033622;28;19925;-66
2024/02/07 07:18:40;;;;;;;;;;;;;;;;;;5032085;28;19921;-66
2024/02/07 07:21:06;;;;;;;;;;;;;;;;;;5022248;28;20038;-66
2024/02/07 07:23:32;;;;;;;;;;;;;;;;;;5031246;28;20373;-66
2024/02/07 07:25:58;;;;;;;;;;;;;;;;;;5033813;28;20337;-67
2024/02/07 07:28:24;;;;;;;;;;;;;;;;;;5032225;28;19921;-67
2024/02/07 07:30:50;;;;;;;;;;;;;;;;;;5033918;28;20007;-67
2024/02/07 07:33:15;;;;;;;;;;;;;;;;;;5033662;28;20060;-67
2024/02/07 07:35:41;;;;;;;;;;;;;;;;;;5032017;28;19925;-67
2024/02/07 07:38:09;;;;;;;;;;;;;;;;;;5014104;28;19926;-67
2024/02/07 07:40:37;;;;;;;;;;;;;;;;;;5030772;28;20033;-67
2024/02/07 07:43:03;;;;;;;;;;;;;;;;;;5013201;28;19926;-67
2024/02/07 07:45:29;;;;;;;;;;;;;;;;;;5026223;28;19928;-66
2024/02/07 07:47:55;;;;;;;;;;;;;;;;;;5031049;28;19920;-66
2024/02/07 07:50:21;;;;;;;;;;;;;;;;;;5024663;28;19932;-66
2024/02/07 07:52:47;;;;;;;;;;;;;;;;;;5031299;28;19924;-66
2024/02/07 07:55:13;;;;;;;;;;;;;;;;;;5032417;28;19983;-66
2024/02/07 07:57:39;;;;;;;;;;;;;;;;;;5029218;28;19969;-67
2024/02/07 08:00:05;;;;;;;;;;;;;;;;;;5026846;28;19929;-66
2024/02/07 08:02:31;;;;;;;;;;;;;;;;;;5024754;28;19928;-66
2024/02/07 08:04:57;;;;;;;;;;;;;;;;;;5029385;28;20402;-67
2024/02/07 08:07:23;;;;;;;;;;;;;;;;;;5028252;28;19925;-66
2024/02/07 08:09:49;;;;;;;;;;;;;;;;;;5030627;28;20049;-66
2024/02/07 08:12:14;;;;;;;;;;;;;;;;;;5029271;28;20003;-66
2024/02/07 08:14:40;;;;;;;;;;;;;;;;;;5030926;28;19995;-66
2024/02/07 08:17:06;;;;;;;;;;;;;;;;;;5027355;28;20398;-66
2024/02/07 08:19:32;;;;;;;;;;;;;;;;;;5018012;28;19925;-67
2024/02/07 08:21:58;;;;;;;;;;;;;;;;;;5017817;28;19931;-66
2024/02/07 08:24:25;;;;;;;;;;;;;;;;;;5027866;28;19925;-66
2024/02/07 08:26:51;;;;;;;;;;;;;;;;;;5032021;28;19932;-66
2024/02/07 08:29:17;;;;;;;;;;;;;;;;;;5027939;28;19921;-67
2024/02/07 08:31:43;;;;;;;;;;;;;;;;;;5029822;28;19928;-67
2024/02/07 08:34:08;;;;;;;;;;;;;;;;;;5029584;28;19924;-67
2024/02/07 08:36:34;;;;;;;;;;;;;;;;;;5027030;28;20292;-67
2024/02/07 08:39:00;;;;;;;;;;;;;;;;;;5029936;28;19928;-66
2024/02/07 08:41:27;;;;;;;;;;;;;;;;;;5031605;28;19958;-66
2024/02/07 08:43:53;;;;;;;;;;;;;;;;;;5029003;28;19925;-66
2024/02/07 08:46:19;;;;;;;;;;;;;;;;;;5027152;28;19921;-66
2024/02/07 08:48:47;;;;;;;;;;;;;;;;;;5029636;28;20259;-66
2024/02/07 08:51:13;;;;;;;;;;;;;;;;;;5021604;28;20287;-66
2024/02/07 08:53:39;;;;;;;;;;;;;;;;;;5028132;28;19924;-66
2024/02/07 08:56:05;;;;;;;;;;;;;;;;;;5028713;28;20353;-66
2024/02/07 08:58:32;;;;;;;;;;;;;;;;;;5027491;28;20008;-66
2024/02/07 09:00:58;;;;;;;;;;;;;;;;;;5025569;28;20315;-66
2024/02/07 09:03:24;;;;;;;;;;;;;;;;;;5025645;28;19921;-66
2024/02/07 09:05:50;;;;;;;;;;;;;;;;;;5030076;28;20367;-66
2024/02/07 09:08:16;;;;;;;;;;;;;;;;;;5029933;28;19929;-66
2024/02/07 09:10:42;;;;;;;;;;;;;;;;;;5030298;28;19985;-66
2024/02/07 09:13:08;;;;;;;;;;;;;;;;;;5027325;28;20390;-66
2024/02/07 09:15:34;;;;;;;;;;;;;;;;;;5027529;28;19965;-66
2024/02/07 09:18:00;;;;;;;;;;;;;;;;;;5027928;28;20300;-66
2024/02/07 09:20:26;;;;;;;;;;;;;;;;;;5030110;28;19925;-66
2024/02/07 09:22:51;;;;;;;;;;;;;;;;;;5019908;28;19921;-66
2024/02/07 09:25:17;;;;;;;;;;;;;;;;;;5023090;28;19925;-66
2024/02/07 09:27:43;;;;;;;;;;;;;;;;;;5030904;28;19925;-66
2024/02/07 09:30:10;;;;;;;;;;;;;;;;;;5031352;28;20404;-66
2024/02/07 09:32:36;;;;;;;;;;;;;;;;;;5014030;28;19921;-67
2024/02/07 09:35:03;;;;;;;;;;;;;;;;;;5030200;28;19979;-66
2024/02/07 09:37:29;;;;;;;;;;;;;;;;;;5031772;28;19921;-66
2024/02/07 09:39:55;;;;;;;;;;;;;;;;;;5031565;28;19927;-66
2024/02/07 09:42:21;;;;;;;;;;;;;;;;;;5019456;28;19959;-66
2024/02/07 09:44:46;;;;;;;;;;;;;;;;;;5012130;28;19928;-66
2024/02/07 09:47:12;;;;;;;;;;;;;;;;;;5029005;28;19921;-66
2024/02/07 09:49:38;;;;;;;;;;;;;;;;;;5029760;28;20679;-66
2024/02/07 09:52:05;;;;;;;;;;;;;;;;;;5031461;28;19925;-66
2024/02/07 09:54:31;;;;;;;;;;;;;;;;;;5031408;28;19921;-67
2024/02/07 09:56:57;;;;;;;;;;;;;;;;;;5022647;28;19948;-67
2024/02/07 09:59:23;;;;;;;;;;;;;;;;;;5031208;28;20370;-67
2024/02/07 10:01:49;;;;;;;;;;;;;;;;;;5028034;28;20316;-67
2024/02/07 10:04:15;;;;;;;;;;;;;;;;;;5028579;28;19979;-66
2024/02/07 10:06:41;;;;;;;;;;;;;;;;;;5028949;28;19929;-66
2024/02/07 10:09:07;;;;;;;;;;;;;;;;;;5028601;28;20018;-66
2024/02/07 10:11:33;;;;;;;;;;;;;;;;;;5025115;28;19933;-66
2024/02/07 10:13:59;;;;;;;;;;;;;;;;;;5022603;28;19921;-66
2024/02/07 10:16:25;;;;;;;;;;;;;;;;;;5029964;28;19932;-67
2024/02/07 10:18:51;;;;;;;;;;;;;;;;;;5031050;28;20347;-66
2024/02/07 10:21:17;;;;;;;;;;;;;;;;;;5029771;28;19936;-66
2024/02/07 10:23:43;;;;;;;;;;;;;;;;;;5029559;28;19932;-67
2024/02/07 10:26:10;;;;;;;;;;;;;;;;;;5022148;28;19926;-67
2024/02/07 10:28:36;;;;;;;;;;;;;;;;;;5025319;28;20400;-66
2024/02/07 10:31:02;;;;;;;;;;;;;;;;;;5015976;28;20044;-67
2024/02/07 10:33:28;;;;;;;;;;;;;;;;;;5012448;28;20287;-67
2024/02/07 10:35:54;;;;;;;;;;;;;;;;;;5013144;28;19922;-67
2024/02/07 10:38:20;;;;;;;;;;;;;;;;;;5031734;28;20293;-67
2024/02/07 10:40:46;;;;;;;;;;;;;;;;;;5031107;28;19925;-67
2024/02/07 10:43:12;;;;;;;;;;;;;;;;;;5033128;28;20015;-67
2024/02/07 10:45:38;;;;;;;;;;;;;;;;;;5026524;28;19931;-67
2024/02/07 10:48:04;;;;;;;;;;;;;;;;;;5029714;28;20485;-66
2024/02/07 10:50:30;;;;;;;;;;;;;;;;;;5029880;28;19921;-66
2024/02/07 10:52:55;;;;;;;;;;;;;;;;;;5031219;28;19921;-66
2024/02/07 10:55:23;;;;;;;;;;;;;;;;;;5025540;28;20004;-66
2024/02/07 10:57:49;;;;;;;;;;;;;;;;;;5024452;28;20042;-67
2024/02/07 11:00:15;;;;;;;;;;;;;;;;;;5019361;28;19929;-67
2024/02/07 11:02:42;;;;;;;;;;;;;;;;;;5029543;28;20570;-67
2024/02/07 11:05:07;;;;;;;;;;;;;;;;;;5032597;28;20022;-67
2024/02/07 11:07:33;;;;;;;;;;;;;;;;;;5032189;28;20879;-67
2024/02/07 11:09:59;;;;;;;;;;;;;;;;;;5031751;28;21710;-67
2024/02/07 11:12:25;;;;;;;;;;;;;;;;;;5030746;28;19921;-67
2024/02/07 11:14:51;;;;;;;;;;;;;;;;;;5031474;28;19947;-66
2024/02/07 11:17:17;;;;;;;;;;;;;;;;;;5033827;28;20754;-67
2024/02/07 11:19:43;;;;;;;;;;;;;;;;;;5021038;28;19972;-67
2024/02/07 11:22:09;;;;;;;;;;;;;;;;;;5022240;28;19925;-65
2024/02/07 11:24:35;;;;;;;;;;;;;;;;;;5027938;28;19964;-66
2024/02/07 11:27:02;;;;;;;;;;;;;;;;;;5020357;28;19976;-66
2024/02/07 11:29:29;;;;;;;;;;;;;;;;;;5027528;28;20842;-66
2024/02/07 11:31:55;;;;;;;;;;;;;;;;;;5014016;28;19925;-66
2024/02/07 11:34:21;;;;;;;;;;;;;;;;;;5028179;28;20311;-67
2024/02/07 11:36:47;;;;;;;;;;;;;;;;;;5031845;28;19986;-67
2024/02/07 11:39:13;;;;;;;;;;;;;;;;;;5032012;28;19987;-66
2024/02/07 11:41:39;;;;;;;;;;;;;;;;;;5033711;28;19955;-66
2024/02/07 11:44:06;;;;;;;;;;;;;;;;;;5031881;28;20374;-66
2024/02/07 11:46:32;;;;;;;;;;;;;;;;;;5033410;28;19924;-66
2024/02/07 11:48:58;;;;;;;;;;;;;;;;;;5026252;28;20043;-66
2024/02/07 11:51:24;;;;;;;;;;;;;;;;;;5024487;28;20015;-66
2024/02/07 11:53:50;;;;;;;;;;;;;;;;;;5024307;28;20723;-66
2024/02/07 11:56:16;;;;;;;;;;;;;;;;;;5032096;28;20031;-66
2024/02/07 11:58:42;;;;;;;;;;;;;;;;;;5032119;28;19959;-66
2024/02/07 12:01:08;;;;;;;;;;;;;;;;;;5032108;28;20078;-66
2024/02/07 12:03:34;;;;;;;;;;;;;;;;;;5031930;28;19932;-66
2024/02/07 12:06:00;;;;;;;;;;;;;;;;;;5030943;28;19920;-65
2024/02/07 12:08:25;;;;;;;;;;;;;;;;;;5031696;28;20383;-66
2024/02/07 12:10:51;;;;;;;;;;;;;;;;;;5015406;28;19925;-65
2024/02/07 12:13:17;;;;;;;;;;;;;;;;;;5029405;28;19932;-67
2024/02/07 12:15:43;;;;;;;;;;;;;;;;;;5025911;28;20434;-67
2024/02/07 12:18:09;;;;;;;;;;;;;;;;;;5010728;28;19929;-67
2024/02/07 12:20:36;;;;;;;;;;;;;;;;;;5010732;28;19929;-65
2024/02/07 12:23:02;;;;;;;;;;;;;;;;;;5010270;28;19973;-66
2024/02/07 12:25:28;;;;;;;;;;;;;;;;;;5011852;28;20058;-66
2024/02/07 12:27:54;;;;;;;;;;;;;;;;;;5020999;28;20418;-66
2024/02/07 12:30:20;;;;;;;;;;;;;;;;;;5030134;28;19928;-66
2024/02/07 12:32:46;;;;;;;;;;;;;;;;;;5031669;28;19921;-66
2024/02/07 12:35:12;;;;;;;;;;;;;;;;;;5031424;28;20330;-66
2024/02/07 12:37:39;;;;;;;;;;;;;;;;;;5013800;28;20309;-67
2024/02/07 12:40:04;;;;;;;;;;;;;;;;;;5012234;28;19921;-66
2024/02/07 12:42:30;;;;;;;;;;;;;;;;;;5008732;28;19927;-66
2024/02/07 12:44:56;;;;;;;;;;;;;;;;;;5012411;28;19925;-66
2024/02/07 12:47:22;;;;;;;;;;;;;;;;;;5016518;28;19960;-66
2024/02/07 12:49:51;;;;;;;;;;;;;;;;;;5021177;28;19930;-67
2024/02/07 12:52:17;;;;;;;;;;;;;;;;;;5012159;28;20443;-66
2024/02/07 12:54:43;;;;;;;;;;;;;;;;;;5022180;28;20019;-66
2024/02/07 12:57:09;;;;;;;;;;;;;;;;;;5012355;28;19922;-66
2024/02/07 12:59:35;;;;;;;;;;;;;;;;;;5008342;28;19921;-66
2024/02/07 13:02:02;;;;;;;;;;;;;;;;;;5012811;28;19929;-66
2024/02/07 13:04:28;;;;;;;;;;;;;;;;;;5012097;28;19948;-66
2024/02/07 13:06:54;;;;;;;;;;;;;;;;;;5018827;28;20388;-67
2024/02/07 13:09:20;;;;;;;;;;;;;;;;;;5011775;28;20322;-67
2024/02/07 13:11:46;;;;;;;;;;;;;;;;;;5010515;28;19922;-67
2024/02/07 13:14:12;;;;;;;;;;;;;;;;;;5012054;28;19921;-67
2024/02/07 13:16:38;;;;;;;;;;;;;;;;;;5010811;28;20016;-67
2024/02/07 13:19:03;;;;;;;;;;;;;;;;;;5018940;28;19929;-67
2024/02/07 13:21:29;;;;;;;;;;;;;;;;;;5031125;28;20438;-66
2024/02/07 13:23:55;;;;;;;;;;;;;;;;;;5012990;28;20003;-66
2024/02/07 13:26:22;;;;;;;;;;;;;;;;;;5010596;28;19928;-65
2024/02/07 13:28:47;;;;;;;;;;;;;;;;;;5010220;28;20353;-66
2024/02/07 13:31:13;;;;;;;;;;;;;;;;;;5011130;28;19922;-67
2024/02/07 13:33:39;;;;;;;;;;;;;;;;;;5012728;28;19928;-68
2024/02/07 13:36:05;;;;;;;;;;;;;;;;;;5017141;28;19928;-68
2024/02/07 13:38:31;;;;;;;;;;;;;;;;;;5013305;28;19926;-69
2024/02/07 13:40:57;;;;;;;;;;;;;;;;;;5028904;28;19933;-69
2024/02/07 13:43:23;;;;;;;;;;;;;;;;;;5029632;28;20286;-69
2024/02/07 13:45:49;;;;;;;;;;;;;;;;;;5031576;28;19928;-69
2024/02/07 13:48:15;;;;;;;;;;;;;;;;;;5017988;28;20028;-68
2024/02/07 13:50:41;;;;;;;;;;;;;;;;;;5000596;28;20714;-69
2024/02/07 13:53:08;;;;;;;;;;;;;;;;;;5028319;28;20016;-69
2024/02/07 13:55:34;;;;;;;;;;;;;;;;;;5030720;28;19973;-68
2024/02/07 13:58:00;;;;;;;;;;;;;;;;;;5030612;28;19933;-68
2024/02/07 14:00:26;;;;;;;;;;;;;;;;;;5010964;28;20016;-68
2024/02/07 14:02:52;;;;;;;;;;;;;;;;;;5009749;28;20079;-68
2024/02/07 14:05:18;;;;;;;;;;;;;;;;;;5010598;28;20450;-68
2024/02/07 14:07:45;;;;;;;;;;;;;;;;;;5011672;28;20071;-68
2024/02/07 14:10:13;;;;;;;;;;;;;;;;;;5022758;28;19936;-68
2024/02/07 14:12:39;;;;;;;;;;;;;;;;;;5013531;28;19928;-68
2024/02/07 14:15:05;;;;;;;;;;;;;;;;;;5034568;28;20338;-68
2024/02/07 14:17:31;;;;;;;;;;;;;;;;;;5017059;28;19994;-68
2024/02/07 14:19:57;;;;;;;;;;;;;;;;;;5033932;28;19925;-68
2024/02/07 14:22:23;;;;;;;;;;;;;;;;;;5017763;28;19961;-68
2024/02/07 14:24:49;;;;;;;;;;;;;;;;;;5013069;28;19928;-69
2024/02/07 14:27:16;;;;;;;;;;;;;;;;;;5021080;28;20310;-69
2024/02/07 14:29:42;;;;;;;;;;;;;;;;;;5033562;28;20379;-69
2024/02/07 14:32:08;;;;;;;;;;;;;;;;;;5034045;28;19925;-69
2024/02/07 14:34:34;;;;;;;;;;;;;;;;;;5026305;28;19973;-69
2024/02/07 14:37:01;;;;;;;;;;;;;;;;;;5034931;28;19960;-69
2024/02/07 14:39:29;;;;;;;;;;;;;;;;;;5033600;28;19967;-69
2024/02/07 14:41:55;;;;;;;;;;;;;;;;;;5034819;28;19975;-69
2024/02/07 14:44:21;;;;;;;;;;;;;;;;;;5034503;28;19924;-68
2024/02/07 14:46:47;;;;;;;;;;;;;;;;;;5033829;28;20008;-67
2024/02/07 14:49:13;;;;;;;;;;;;;;;;;;5032645;28;19971;-68
2024/02/07 14:51:38;;;;;;;;;;;;;;;;;;5023407;28;19987;-68
2024/02/07 14:54:04;;;;;;;;;;;;;;;;;;5032279;28;20332;-68
2024/02/07 14:56:30;;;;;;;;;;;;;;;;;;5034196;28;19967;-68
2024/02/07 14:58:56;;;;;;;;;;;;;;;;;;5034363;28;19981;-68
2024/02/07 15:01:24;;;;;;;;;;;;;;;;;;5032580;28;20394;-68
2024/02/07 15:03:50;;;;;;;;;;;;;;;;;;5034098;28;20050;-68
2024/02/07 15:06:16;;;;;;;;;;;;;;;;;;5020963;28;20004;-68
2024/02/07 15:08:42;;;;;;;;;;;;;;;;;;5014409;28;19922;-68
2024/02/07 15:11:08;;;;;;;;;;;;;;;;;;5014083;28;19929;-68
2024/02/07 15:13:34;;;;;;;;;;;;;;;;;;5014236;28;19932;-68
2024/02/07 15:16:00;;;;;;;;;;;;;;;;;;5014330;28;19921;-68
2024/02/07 15:18:26;;;;;;;;;;;;;;;;;;5022192;28;19922;-68
2024/02/07 15:20:52;;;;;;;;;;;;;;;;;;5027421;28;20539;-69
2024/02/07 15:23:18;;;;;;;;;;;;;;;;;;5014051;28;19929;-68
2024/02/07 15:25:49;;;;;;;;;;;;;;;;;;5013042;28;19922;-68
2024/02/07 15:28:15;;;;;;;;;;;;;;;;;;5015157;28;19975;-68
2024/02/07 15:30:43;;;;;;;;;;;;;;;;;;5031651;28;19949;-68
2024/02/07 15:33:08;;;;;;;;;;;;;;;;;;5013963;28;19927;-68
2024/02/07 15:35:34;;;;;;;;;;;;;;;;;;5023805;28;20317;-68
2024/02/07 15:38:00;;;;;;;;;;;;;;;;;;5033479;28;19929;-68
2024/02/07 15:40:26;;;;;;;;;;;;;;;;;;5033631;28;19936;-68
2024/02/07 15:42:52;;;;;;;;;;;;;;;;;;5033497;28;19921;-68
2024/02/07 15:45:18;;;;;;;;;;;;;;;;;;5032051;28;20317;-68
2024/02/07 15:47:44;;;;;;;;;;;;;;;;;;5030781;28;19999;-66
2024/02/07 15:50:10;;;;;;;;;;;;;;;;;;5027305;28;19925;-68
2024/02/07 15:52:36;;;;;;;;;;;;;;;;;;5016477;28;19927;-68
2024/02/07 15:55:02;;;;;;;;;;;;;;;;;;5029737;28;19925;-68
2024/02/07 15:57:27;;;;;;;;;;;;;;;;;;5030556;28;19929;-68
2024/02/07 15:59:53;;;;;;;;;;;;;;;;;;5029443;28;19932;-68
2024/02/07 16:02:19;;;;;;;;;;;;;;;;;;5029235;28;20059;-68
2024/02/07 16:04:45;;;;;;;;;;;;;;;;;;5030820;28;19925;-68
2024/02/07 16:07:11;;;;;;;;;;;;;;;;;;5028646;28;20002;-68
2024/02/07 16:09:37;;;;;;;;;;;;;;;;;;5022223;28;20003;-68
2024/02/07 16:12:03;;;;;;;;;;;;;;;;;;5019670;28;19972;-68
2024/02/07 16:14:29;;;;;;;;;;;;;;;;;;4999103;28;19922;-68
2024/02/07 16:16:55;;;;;;;;;;;;;;;;;;4990884;28;19925;-68
2024/02/07 16:19:21;;;;;;;;;;;;;;;;;;4973212;28;19933;-68
2024/02/07 16:21:47;;;;;;;;;;;;;;;;;;4993452;28;19937;-69
2024/02/07 16:24:13;;;;;;;;;;;;;;;;;;5032153;23;19916;-63
2024/02/07 16:26:38;;;;;;;;;;;;;;;;;;5026895;28;19936;-63
2024/02/07 16:29:04;;;;;;;;;;;;;;;;;;5021428;28;19925;-68
2024/02/07 16:31:30;;;;;;;;;;;;;;;;;;5012328;28;19924;-63
2024/02/07 16:33:56;;;;;;;;;;;;;;;;;;5029968;28;19921;-63
2024/02/07 16:36:22;;;;;;;;;;;;;;;;;;5019218;28;20024;-62
2024/02/07 16:38:48;;;;;;;;;;;;;;;;;;5021202;28;20349;-62
2024/02/07 16:41:14;;;;;;;;;;;;;;;;;;5023985;28;21252;-62
2024/02/07 16:43:40;;;;;;;;;;;;;;;;;;5027977;28;19929;-62
2024/02/07 16:46:06;;;;;;;;;;;;;;;;;;5029728;28;19925;-62
2024/02/07 16:48:32;;;;;;;;;;;;;;;;;;5029894;28;19925;-63
2024/02/07 16:50:58;;;;;;;;;;;;;;;;;;5029829;28;19931;-63
2024/02/07 16:53:24;;;;;;;;;;;;;;;;;;5028914;28;19947;-63
2024/02/07 16:55:50;;;;;;;;;;;;;;;;;;5028516;28;19936;-62
2024/02/07 16:58:16;;;;;;;;;;;;;;;;;;5016617;28;19932;-63
2024/02/07 17:00:42;;;;;;;;;;;;;;;;;;5020064;28;19925;-62
2024/02/07 17:03:08;;;;;;;;;;;;;;;;;;5029359;28;19929;-63
2024/02/07 17:05:34;;;;;;;;;;;;;;;;;;5011852;28;19932;-63
2024/02/07 17:08:00;;;;;;;;;;;;;;;;;;5029274;28;19937;-62
2024/02/07 17:10:26;;;;;;;;;;;;;;;;;;5006205;28;19925;-62
2024/02/07 17:12:52;;;;;;;;;;;;;;;;;;5018857;28;19965;-63
2024/02/07 17:15:18;;;;;;;;;;;;;;;;;;5011435;28;19961;-63
2024/02/07 17:17:44;;;;;;;;;;;;;;;;;;5029189;28;20015;-62
2024/02/07 17:20:10;;;;;;;;;;;;;;;;;;5029068;28;19925;-62
2024/02/07 17:22:36;;;;;;;;;;;;;;;;;;5029490;28;20406;-63
2024/02/07 17:25:01;;;;;;;;;;;;;;;;;;5025601;28;19932;-62
2024/02/07 17:27:29;;;;;;;;;;;;;;;;;;5048108;28;19936;-63
2024/02/07 17:29:55;;;;;;;;;;;;;;;;;;5030917;28;19925;-63
2024/02/07 17:32:21;;;;;;;;;;;;;;;;;;5027909;28;19971;-63
2024/02/07 17:34:46;;;;;;;;;;;;;;;;;;5038017;28;20039;-63
2024/02/07 17:37:13;;;;;;;;;;;;;;;;;;5035264;28;19925;-63
2024/02/07 17:39:38;;;;;;;;;;;;;;;;;;5027743;28;20012;-62
2024/02/07 17:42:04;;;;;;;;;;;;;;;;;;5027878;28;20017;-63
2024/02/07 17:44:30;;;;;;;;;;;;;;;;;;5029334;28;19929;-62
2024/02/07 17:46:56;;;;;;;;;;;;;;;;;;5027900;28;19925;-62